createdAt,value
2023-03-25T00:00:28.071Z,4.50
2023-03-25T00:03:33.084Z,3.90
2023-03-25T00:06:33.986Z,4.40
2023-03-25T00:09:35.058Z,8.10
2023-03-25T00:12:36.136Z,3.70
2023-03-25T00:15:37.061Z,7.10
2023-03-25T00:18:38.068Z,5.10
2023-03-25T00:21:39.237Z,3.40
2023-03-25T00:24:40.767Z,4.80
2023-03-25T00:27:43.406Z,4.00
2023-03-25T00:30:44.945Z,2.40
2023-03-25T00:33:46.283Z,5.50
2023-03-25T00:36:47.192Z,2.70
2023-03-25T00:39:48.144Z,3.70
2023-03-25T00:42:49.646Z,3.20
2023-03-25T00:45:54.951Z,3.20
2023-03-25T00:48:57.645Z,3.30
2023-03-25T00:51:58.597Z,3.00
2023-03-25T00:55:01.320Z,4.70
2023-03-25T00:58:04.682Z,4.70
2023-03-25T01:01:14.832Z,2.50
2023-03-25T01:04:16.015Z,3.50
2023-03-25T01:07:19.823Z,3.80
2023-03-25T01:10:21.611Z,4.30
2023-03-25T01:13:23.329Z,4.60
2023-03-25T01:16:24.909Z,3.10
2023-03-25T01:19:26.016Z,3.40
2023-03-25T01:22:29.101Z,4.60
2023-03-25T01:25:30.150Z,2.70
2023-03-25T01:28:31.104Z,3.10
2023-03-25T01:31:32.205Z,3.20
2023-03-25T01:34:37.740Z,4.30
2023-03-25T01:37:38.823Z,5.00
2023-03-25T01:40:39.830Z,3.80
2023-03-25T01:43:41.033Z,5.10
2023-03-25T01:46:44.302Z,3.50
2023-03-25T01:49:46.065Z,3.80
2023-03-25T01:52:50.516Z,3.40
2023-03-25T01:55:53.022Z,4.20
2023-03-25T01:58:54.196Z,2.40
2023-03-25T02:01:56.662Z,4.20
2023-03-25T02:05:01.481Z,4.30
2023-03-25T02:08:05.140Z,5.10
2023-03-25T02:11:07.184Z,3.30
2023-03-25T02:14:11.847Z,3.10
2023-03-25T02:17:30.950Z,3.40
2023-03-25T02:21:10.672Z,5.70
2023-03-25T02:24:53.290Z,4.80
2023-03-25T02:28:03.342Z,5.80
2023-03-25T02:31:32.063Z,3.70
2023-03-25T02:35:00.839Z,4.30
2023-03-25T02:38:10.693Z,4.30
2023-03-25T02:41:20.581Z,4.90
2023-03-25T02:44:29.981Z,3.90
2023-03-25T02:47:36.847Z,3.80
2023-03-25T02:50:43.070Z,4.10
2023-03-25T02:53:46.085Z,3.10
2023-03-25T02:56:48.584Z,6.40
2023-03-25T02:59:53.443Z,2.90
2023-03-25T03:03:01.112Z,3.90
2023-03-25T03:06:04.720Z,4.40
2023-03-25T03:09:16.870Z,4.00
2023-03-25T03:12:55.717Z,4.20
2023-03-25T03:16:30.253Z,5.30
2023-03-25T03:19:50.402Z,7.00
2023-03-25T03:23:01.924Z,7.00
2023-03-25T03:26:21.040Z,4.60
2023-03-25T03:29:28.699Z,5.10
2023-03-25T03:33:02.155Z,4.10
2023-03-25T03:36:08.809Z,4.70
2023-03-25T03:39:25.986Z,6.30
2023-03-25T03:42:43.718Z,4.60
2023-03-25T03:45:47.767Z,6.40
2023-03-25T03:48:54.538Z,5.40
2023-03-25T03:52:17.654Z,5.90
2023-03-25T03:55:28.555Z,4.20
2023-03-25T03:58:33.687Z,3.90
2023-03-25T04:01:45.357Z,4.40
2023-03-25T04:04:46.322Z,5.30
2023-03-25T04:07:58.507Z,5.40
2023-03-25T04:11:07.345Z,4.20
2023-03-25T04:14:09.116Z,3.50
2023-03-25T04:17:10.242Z,4.40
2023-03-25T04:20:15.717Z,4.60
2023-03-25T04:23:16.716Z,6.30
2023-03-25T04:26:18.121Z,5.40
2023-03-25T04:29:19.075Z,5.90
2023-03-25T04:32:20.036Z,8.60
2023-03-25T04:35:32.229Z,6.70
2023-03-25T04:38:33.227Z,6.00
2023-03-25T04:41:34.440Z,6.90
2023-03-25T04:44:38.349Z,5.60
2023-03-25T04:50:45.082Z,5.90
2023-03-25T04:53:45.956Z,6.90
2023-03-25T04:56:48.931Z,6.70
2023-03-25T04:59:50.027Z,8.50
2023-03-25T05:02:55.507Z,4.90
2023-03-25T05:05:56.428Z,7.70
2023-03-25T05:08:57.326Z,4.20
2023-03-25T05:11:58.238Z,6.20
2023-03-25T05:14:59.110Z,5.50
2023-03-25T05:18:01.399Z,4.50
2023-03-25T05:21:02.453Z,7.50
2023-03-25T05:24:04.703Z,5.10
2023-03-25T05:27:05.689Z,5.40
2023-03-25T05:30:07.191Z,6.70
2023-03-25T05:33:11.939Z,5.60
2023-03-25T05:36:13.585Z,5.50
2023-03-25T05:39:14.802Z,5.40
2023-03-25T05:42:15.798Z,4.90
2023-03-25T05:45:16.821Z,7.80
2023-03-25T05:48:18.258Z,5.10
2023-03-25T05:51:21.163Z,9.30
2023-03-25T05:54:23.856Z,7.60
2023-03-25T05:57:25.019Z,5.20
2023-03-25T06:00:26.140Z,6.40
2023-03-25T06:03:27.389Z,4.70
2023-03-25T06:06:29.435Z,7.10
2023-03-25T06:09:30.423Z,7.70
2023-03-25T06:12:38.093Z,5.50
2023-03-25T06:18:42.364Z,6.70
2023-03-25T06:21:43.325Z,7.70
2023-03-25T06:24:44.267Z,7.70
2023-03-25T06:28:02.736Z,7.70
2023-03-25T06:31:06.550Z,11.60
2023-03-25T06:34:07.645Z,6.60
2023-03-25T06:37:09.277Z,7.20
2023-03-25T06:40:10.825Z,5.90
2023-03-25T06:43:11.840Z,6.10
2023-03-25T06:46:13.348Z,8.90
2023-03-25T06:49:35.895Z,4.80
2023-03-25T06:52:37.103Z,6.30
2023-03-25T06:55:38.415Z,7.70
2023-03-25T06:58:40.993Z,5.40
2023-03-25T07:01:42.401Z,5.70
2023-03-25T07:04:43.353Z,6.20
2023-03-25T07:07:44.253Z,6.50
2023-03-25T07:10:45.392Z,5.10
2023-03-25T07:13:46.353Z,6.60
2023-03-25T07:16:47.414Z,7.10
2023-03-25T07:19:49.006Z,5.80
2023-03-25T07:22:49.905Z,4.60
2023-03-25T07:25:51.366Z,7.80
2023-03-25T07:28:52.722Z,6.70
2023-03-25T07:31:53.821Z,12.00
2023-03-25T07:34:54.853Z,6.60
2023-03-25T07:37:55.717Z,9.00
2023-03-25T07:40:56.777Z,9.80
2023-03-25T07:43:57.631Z,13.20
2023-03-25T07:47:05.052Z,10.00
2023-03-25T07:50:06.736Z,12.00
2023-03-25T07:53:07.972Z,6.80
2023-03-25T07:56:09.299Z,10.50
2023-03-25T07:59:10.305Z,19.60
2023-03-25T08:02:14.758Z,13.90
2023-03-25T08:05:20.715Z,15.40
2023-03-25T08:08:21.986Z,12.80
2023-03-25T08:11:22.995Z,14.00
2023-03-25T08:14:25.135Z,46.50
2023-03-25T08:17:26.219Z,12.40
2023-03-25T08:20:27.349Z,9.60
2023-03-25T08:23:28.298Z,13.60
2023-03-25T08:26:30.624Z,8.40
2023-03-25T08:29:33.804Z,8.10
2023-03-25T08:32:35.766Z,15.30
2023-03-25T08:35:37.777Z,6.70
2023-03-25T08:38:39.986Z,7.60
2023-03-25T08:41:41.440Z,9.20
2023-03-25T08:44:42.630Z,7.90
2023-03-25T08:47:45.013Z,15.20
2023-03-25T08:50:45.883Z,8.70
2023-03-25T08:53:46.867Z,6.90
2023-03-25T08:56:47.754Z,13.80
2023-03-25T08:59:49.769Z,13.30
2023-03-25T09:02:50.985Z,12.10
2023-03-25T09:05:52.506Z,15.00
2023-03-25T09:08:55.327Z,12.80
2023-03-25T09:11:56.400Z,11.20
2023-03-25T09:14:57.361Z,10.60
2023-03-25T09:17:58.281Z,10.40
2023-03-25T09:20:59.868Z,7.20
2023-03-25T09:24:00.750Z,8.20
2023-03-25T09:27:03.006Z,8.90
2023-03-25T09:30:05.593Z,30.20
2023-03-25T09:33:07.142Z,11.30
2023-03-25T09:36:08.369Z,6.50
2023-03-25T09:39:09.673Z,7.90
2023-03-25T09:42:22.752Z,10.20
2023-03-25T09:45:37.427Z,13.00
2023-03-25T09:48:42.085Z,9.10
2023-03-25T09:51:44.529Z,10.00
2023-03-25T09:54:51.597Z,5.80
2023-03-25T09:57:59.852Z,6.90
2023-03-25T10:01:19.565Z,14.60
2023-03-25T10:04:34.169Z,9.30
2023-03-25T10:08:03.884Z,12.50
2023-03-25T10:11:16.148Z,6.50
2023-03-25T10:14:19.760Z,10.80
2023-03-25T10:17:39.791Z,12.90
2023-03-25T10:21:07.898Z,10.20
2023-03-25T10:24:22.504Z,41.40
2023-03-25T10:27:32.891Z,12.60
2023-03-25T10:30:43.536Z,8.90
2023-03-25T10:33:52.609Z,9.00
2023-03-25T10:36:57.061Z,9.00
2023-03-25T10:40:22.045Z,10.10
2023-03-25T10:43:22.983Z,6.70
2023-03-25T10:46:48.034Z,9.40
2023-03-25T10:49:50.303Z,8.90
2023-03-25T10:52:51.910Z,15.40
2023-03-25T10:56:04.391Z,8.20
2023-03-25T10:59:44.663Z,7.70
2023-03-25T11:02:49.010Z,6.60
2023-03-25T11:05:51.085Z,7.50
2023-03-25T11:09:11.681Z,9.20
2023-03-25T11:12:18.575Z,7.60
2023-03-25T11:15:25.292Z,7.30
2023-03-25T11:18:40.279Z,5.70
2023-03-25T11:21:47.129Z,8.30
2023-03-25T11:24:50.448Z,7.50
2023-03-25T11:31:20.433Z,7.80
2023-03-25T11:34:23.375Z,6.50
2023-03-25T11:37:24.621Z,5.20
2023-03-25T11:40:27.902Z,6.80
2023-03-25T11:46:33.815Z,7.30
2023-03-25T11:49:37.816Z,6.60
2023-03-25T11:52:44.581Z,5.30
2023-03-25T11:55:47.818Z,19.20
2023-03-25T12:01:51.886Z,12.70
2023-03-25T12:08:14.499Z,13.40
2023-03-25T12:11:51.974Z,7.10
2023-03-25T12:14:59.726Z,2.90
2023-03-25T12:18:26.945Z,4.70
2023-03-25T12:21:42.945Z,4.50
2023-03-25T12:25:13.675Z,2.70
2023-03-25T12:28:26.569Z,10.20
2023-03-25T12:31:33.834Z,27.00
2023-03-25T12:34:50.012Z,7.20
2023-03-25T12:37:50.864Z,3.20
2023-03-25T12:41:00.731Z,3.00
2023-03-25T12:44:03.072Z,7.30
2023-03-25T12:47:19.246Z,25.40
2023-03-25T12:50:30.436Z,5.50
2023-03-25T12:53:56.317Z,4.20
2023-03-25T12:57:09.446Z,2.50
2023-03-25T13:00:29.788Z,2.20
2023-03-25T13:04:02.469Z,1.40
2023-03-25T13:07:57.999Z,1.90
2023-03-25T13:11:38.464Z,2.90
2023-03-25T13:15:03.021Z,3.60
2023-03-25T13:18:21.873Z,3.40
2023-03-25T13:21:30.992Z,3.70
2023-03-25T13:27:44.388Z,5.10
2023-03-25T13:30:47.643Z,3.20
2023-03-25T13:33:53.798Z,4.70
2023-03-25T13:37:06.137Z,1.60
2023-03-25T13:40:13.297Z,18.50
2023-03-25T13:43:29.933Z,11.80
2023-03-25T13:46:43.143Z,6.70
2023-03-25T13:49:57.735Z,1.90
2023-03-25T13:53:28.302Z,7.80
2023-03-25T13:56:57.188Z,2.80
2023-03-25T14:00:24.756Z,3.30
2023-03-25T14:03:45.957Z,2.40
2023-03-25T14:06:46.790Z,3.20
2023-03-25T14:10:04.302Z,3.70
2023-03-25T14:13:09.771Z,3.50
2023-03-25T14:16:17.855Z,3.20
2023-03-25T14:19:29.129Z,1.80
2023-03-25T14:22:38.958Z,1.20
2023-03-25T14:25:49.263Z,8.00
2023-03-25T14:28:55.136Z,2.60
2023-03-25T14:32:16.560Z,1.30
2023-03-25T14:35:32.988Z,5.80
2023-03-25T14:38:54.000Z,7.10
2023-03-25T14:42:10.561Z,2.70
2023-03-25T14:45:37.732Z,2.60
2023-03-25T14:48:49.826Z,4.60
2023-03-25T14:51:53.591Z,12.20
2023-03-25T14:54:56.021Z,2.30
2023-03-25T14:58:00.156Z,3.20
2023-03-25T15:01:07.586Z,5.80
2023-03-25T15:04:13.771Z,5.00
2023-03-25T15:07:17.975Z,2.30
2023-03-25T15:10:23.153Z,4.30
2023-03-25T15:13:27.100Z,2.00
2023-03-25T15:16:31.135Z,2.90
2023-03-25T15:19:58.401Z,1.90
2023-03-25T15:23:17.364Z,1.60
2023-03-25T15:26:34.483Z,3.30
2023-03-25T15:30:14.463Z,5.60
2023-03-25T15:33:21.310Z,3.60
2023-03-25T15:36:28.554Z,13.20
2023-03-25T15:39:54.034Z,4.20
2023-03-25T15:43:07.954Z,5.30
2023-03-25T15:46:56.596Z,3.00
2023-03-25T15:50:15.535Z,11.00
2023-03-25T15:53:42.536Z,1.30
2023-03-25T15:56:46.057Z,1.40
2023-03-25T15:59:57.116Z,2.20
2023-03-25T16:03:10.025Z,2.40
2023-03-25T16:06:14.747Z,2.50
2023-03-25T16:09:21.215Z,6.40
2023-03-25T16:12:24.300Z,0.90
2023-03-25T16:18:27.058Z,1.80
2023-03-25T16:21:31.535Z,1.90
2023-03-25T16:24:33.350Z,2.00
2023-03-25T16:27:42.212Z,1.80
2023-03-25T16:30:47.578Z,1.30
2023-03-25T16:33:48.479Z,1.30
2023-03-25T16:36:51.522Z,1.20
2023-03-25T16:39:56.158Z,1.70
2023-03-25T16:43:10.788Z,2.80
2023-03-25T16:46:14.403Z,6.10
2023-03-25T16:49:41.463Z,1.60
2023-03-25T16:52:42.507Z,1.20
2023-03-25T16:55:49.373Z,3.70
2023-03-25T16:58:57.267Z,2.20
2023-03-25T17:02:00.387Z,2.30
2023-03-25T17:05:21.542Z,3.10
2023-03-25T17:08:23.159Z,3.70
2023-03-25T17:11:27.952Z,1.00
2023-03-25T17:14:32.838Z,1.80
2023-03-25T17:17:41.599Z,2.20
2023-03-25T17:20:45.113Z,1.00
2023-03-25T17:23:46.301Z,1.80
2023-03-25T17:27:20.863Z,1.80
2023-03-25T17:33:38.346Z,1.40
2023-03-25T17:36:41.309Z,1.70
2023-03-25T17:39:48.286Z,3.70
2023-03-25T17:42:49.317Z,2.50
2023-03-25T17:45:50.587Z,1.60
2023-03-25T17:48:54.457Z,1.30
2023-03-25T17:51:55.503Z,2.20
2023-03-25T17:54:56.382Z,5.20
2023-03-25T17:57:57.264Z,2.50
2023-03-25T18:00:58.504Z,1.90
2023-03-25T18:03:59.398Z,1.30
2023-03-25T18:07:00.287Z,6.70
2023-03-25T18:10:01.476Z,6.90
2023-03-25T18:13:02.657Z,2.30
2023-03-25T18:16:04.836Z,4.50
2023-03-25T18:19:21.846Z,4.00
2023-03-25T18:22:22.755Z,11.10
2023-03-25T18:25:24.213Z,10.70
2023-03-25T18:28:25.101Z,11.20
2023-03-25T18:31:26.717Z,11.20
2023-03-25T18:34:28.167Z,7.00
2023-03-25T18:37:29.256Z,9.00
2023-03-25T18:40:33.844Z,8.90
2023-03-25T18:43:34.699Z,11.00
2023-03-25T18:46:38.814Z,10.20
2023-03-25T18:49:40.209Z,9.50
2023-03-25T18:52:41.196Z,5.90
2023-03-25T18:55:42.812Z,6.20
2023-03-25T18:58:43.880Z,4.50
2023-03-25T19:01:45.309Z,6.90
2023-03-25T19:04:59.620Z,6.40
2023-03-25T19:08:05.382Z,4.90
2023-03-25T19:11:18.738Z,6.90
2023-03-25T19:14:21.783Z,5.70
2023-03-25T19:17:22.754Z,6.10
2023-03-25T19:20:35.096Z,6.20
2023-03-25T19:23:36.008Z,9.10
2023-03-25T19:26:39.749Z,7.80
2023-03-25T19:29:41.054Z,9.20
2023-03-25T19:32:43.623Z,9.90
2023-03-25T19:35:53.613Z,9.90
2023-03-25T19:39:03.135Z,8.50
2023-03-25T19:42:04.159Z,11.30
2023-03-25T19:45:08.384Z,9.90
2023-03-25T19:48:10.664Z,12.00
2023-03-25T19:51:11.616Z,12.00
2023-03-25T19:54:14.579Z,12.00
2023-03-25T19:57:17.382Z,14.20
2023-03-25T20:00:21.108Z,12.70
2023-03-25T20:06:24.069Z,10.70
2023-03-25T20:09:25.326Z,10.20
2023-03-25T20:12:26.246Z,7.00
2023-03-25T20:15:27.206Z,9.90
2023-03-25T20:18:28.148Z,9.40
2023-03-25T20:21:29.227Z,11.80
2023-03-25T20:24:30.168Z,13.70
2023-03-25T20:27:31.150Z,16.40
2023-03-25T20:30:34.567Z,15.70
2023-03-25T20:33:35.686Z,16.50
2023-03-25T20:36:36.801Z,14.50
2023-03-25T20:39:40.541Z,15.00
2023-03-25T20:42:43.398Z,12.40
2023-03-25T20:45:44.324Z,13.70
2023-03-25T20:48:46.129Z,15.60
2023-03-25T20:51:50.662Z,13.60
2023-03-25T20:54:52.715Z,15.60
2023-03-25T20:57:53.944Z,17.00
2023-03-25T21:00:58.108Z,15.30
2023-03-25T21:03:59.086Z,14.00
2023-03-25T21:07:00.321Z,16.20
2023-03-25T21:10:01.821Z,17.10
2023-03-25T21:13:03.148Z,14.50
2023-03-25T21:16:04.656Z,14.40
2023-03-25T21:19:08.597Z,13.10
2023-03-25T21:25:13.530Z,12.40
2023-03-25T21:28:16.659Z,15.00
2023-03-25T21:31:21.366Z,13.00
2023-03-25T21:34:22.576Z,16.40
2023-03-25T21:37:26.773Z,13.70
2023-03-25T21:40:28.184Z,16.20
2023-03-25T21:43:42.557Z,19.00
2023-03-25T21:46:46.774Z,19.20
2023-03-25T21:49:49.404Z,14.90
2023-03-25T21:52:50.351Z,13.40
2023-03-25T21:55:54.506Z,14.60
2023-03-25T21:58:57.014Z,13.80
2023-03-25T22:01:57.979Z,15.00
2023-03-25T22:04:58.979Z,14.20
2023-03-25T22:07:59.809Z,14.20
2023-03-25T22:11:09.132Z,16.60
2023-03-25T22:14:10.080Z,14.20
2023-03-25T22:17:11.113Z,15.70
2023-03-25T22:20:14.097Z,17.30
2023-03-25T22:23:15.452Z,16.50
2023-03-25T22:26:17.318Z,17.80
2023-03-25T22:29:18.244Z,15.90
2023-03-25T22:32:19.188Z,18.70
2023-03-25T22:35:21.049Z,16.90
2023-03-25T22:38:21.929Z,13.10
2023-03-25T22:41:32.306Z,12.40
2023-03-25T22:44:33.202Z,10.80
2023-03-25T22:47:34.179Z,12.10
2023-03-25T22:50:35.055Z,10.00
2023-03-25T22:53:35.972Z,9.70
2023-03-25T22:56:37.616Z,11.20
2023-03-25T22:59:38.630Z,12.00
2023-03-25T23:02:40.031Z,11.60
2023-03-25T23:05:41.685Z,12.60
2023-03-25T23:08:43.190Z,9.90
2023-03-25T23:11:45.090Z,10.70
2023-03-25T23:14:52.096Z,10.70
2023-03-25T23:17:53.838Z,11.30
2023-03-25T23:20:55.733Z,8.80
2023-03-25T23:23:58.620Z,11.90
2023-03-25T23:27:00.289Z,12.20
2023-03-25T23:30:02.585Z,10.80
2023-03-25T23:33:03.647Z,12.60
2023-03-25T23:36:07.071Z,11.00
2023-03-25T23:39:10.920Z,13.50
2023-03-25T23:42:11.793Z,9.50
2023-03-25T23:45:12.616Z,11.60
2023-03-25T23:48:13.507Z,9.90
2023-03-25T23:51:16.902Z,10.40
2023-03-25T23:54:18.172Z,10.20
2023-03-25T23:57:19.178Z,9.50
